sensor_id;sensor_type;location;lat;lon;timestamp;temperature;humidity
59977;DHT22;45837;51.076;3.578;2022-08-02T00:02:23;25.60;50.30
59977;DHT22;45837;51.076;3.578;2022-08-02T00:04:49;25.60;50.30
59977;DHT22;45837;51.076;3.578;2022-08-02T00:07:15;25.60;50.30
59977;DHT22;45837;51.076;3.578;2022-08-02T00:09:42;25.60;50.40
59977;DHT22;45837;51.076;3.578;2022-08-02T00:12:09;25.60;50.40
59977;DHT22;45837;51.076;3.578;2022-08-02T00:14:35;25.60;50.50
59977;DHT22;45837;51.076;3.578;2022-08-02T00:17:01;25.60;50.40
59977;DHT22;45837;51.076;3.578;2022-08-02T00:19:26;25.60;50.50
59977;DHT22;45837;51.076;3.578;2022-08-02T00:21:52;25.60;50.50
59977;DHT22;45837;51.076;3.578;2022-08-02T00:24:18;25.60;50.60
59977;DHT22;45837;51.076;3.578;2022-08-02T00:26:44;25.50;50.50
59977;DHT22;45837;51.076;3.578;2022-08-02T00:29:09;25.50;50.60
59977;DHT22;45837;51.076;3.578;2022-08-02T00:31:35;25.50;50.70
59977;DHT22;45837;51.076;3.578;2022-08-02T00:34:02;25.60;50.90
59977;DHT22;45837;51.076;3.578;2022-08-02T00:36:28;25.50;50.90
59977;DHT22;45837;51.076;3.578;2022-08-02T00:38:54;25.50;51.00
59977;DHT22;45837;51.076;3.578;2022-08-02T00:41:20;25.50;51.00
59977;DHT22;45837;51.076;3.578;2022-08-02T00:43:48;25.50;51.10
59977;DHT22;45837;51.076;3.578;2022-08-02T00:46:15;25.50;51.20
59977;DHT22;45837;51.076;3.578;2022-08-02T00:48:41;25.60;51.30
59977;DHT22;45837;51.076;3.578;2022-08-02T00:51:07;25.50;51.30
59977;DHT22;45837;51.076;3.578;2022-08-02T00:53:33;25.50;51.40
59977;DHT22;45837;51.076;3.578;2022-08-02T00:55:59;25.50;51.40
59977;DHT22;45837;51.076;3.578;2022-08-02T00:58:26;25.50;51.50
59977;DHT22;45837;51.076;3.578;2022-08-02T01:00:52;25.50;51.50
59977;DHT22;45837;51.076;3.578;2022-08-02T01:03:18;25.50;51.60
59977;DHT22;45837;51.076;3.578;2022-08-02T01:05:44;25.50;51.60
59977;DHT22;45837;51.076;3.578;2022-08-02T01:08:10;25.50;51.70
59977;DHT22;45837;51.076;3.578;2022-08-02T01:10:36;25.50;51.70
59977;DHT22;45837;51.076;3.578;2022-08-02T01:13:01;25.50;51.70
59977;DHT22;45837;51.076;3.578;2022-08-02T01:15:27;25.50;51.80
59977;DHT22;45837;51.076;3.578;2022-08-02T01:18:02;25.50;51.80
59977;DHT22;45837;51.076;3.578;2022-08-02T01:30:58;25.50;52.10
59977;DHT22;45837;51.076;3.578;2022-08-02T01:33:43;25.50;52.20
59977;DHT22;45837;51.076;3.578;2022-08-02T01:36:10;25.40;52.20
59977;DHT22;45837;51.076;3.578;2022-08-02T01:38:39;25.50;52.20
59977;DHT22;45837;51.076;3.578;2022-08-02T01:41:09;25.40;52.40
59977;DHT22;45837;51.076;3.578;2022-08-02T01:43:39;25.40;52.50
59977;DHT22;45837;51.076;3.578;2022-08-02T01:46:07;25.40;52.50
59977;DHT22;45837;51.076;3.578;2022-08-02T01:48:34;25.40;52.60
59977;DHT22;45837;51.076;3.578;2022-08-02T01:51:00;25.40;52.60
59977;DHT22;45837;51.076;3.578;2022-08-02T01:53:28;25.40;52.70
59977;DHT22;45837;51.076;3.578;2022-08-02T01:55:57;25.40;52.70
59977;DHT22;45837;51.076;3.578;2022-08-02T01:58:26;25.40;52.80
59977;DHT22;45837;51.076;3.578;2022-08-02T02:00:55;25.40;52.80
59977;DHT22;45837;51.076;3.578;2022-08-02T02:03:23;25.40;52.90
59977;DHT22;45837;51.076;3.578;2022-08-02T02:05:53;25.40;52.90
59977;DHT22;45837;51.076;3.578;2022-08-02T02:08:24;25.40;53.00
59977;DHT22;45837;51.076;3.578;2022-08-02T02:10:51;25.40;53.00
59977;DHT22;45837;51.076;3.578;2022-08-02T02:13:19;25.40;53.20
59977;DHT22;45837;51.076;3.578;2022-08-02T02:15:47;25.40;53.20
59977;DHT22;45837;51.076;3.578;2022-08-02T02:18:20;25.40;53.30
59977;DHT22;45837;51.076;3.578;2022-08-02T02:20:48;25.40;53.30
59977;DHT22;45837;51.076;3.578;2022-08-02T02:23:13;25.40;53.40
59977;DHT22;45837;51.076;3.578;2022-08-02T02:25:40;25.40;53.40
59977;DHT22;45837;51.076;3.578;2022-08-02T02:28:25;25.40;53.40
59977;DHT22;45837;51.076;3.578;2022-08-02T02:31:02;25.40;53.40
59977;DHT22;45837;51.076;3.578;2022-08-02T02:33:30;25.30;53.50
59977;DHT22;45837;51.076;3.578;2022-08-02T02:35:58;25.30;53.50
59977;DHT22;45837;51.076;3.578;2022-08-02T02:38:29;25.30;53.50
59977;DHT22;45837;51.076;3.578;2022-08-02T02:40:57;25.30;53.50
59977;DHT22;45837;51.076;3.578;2022-08-02T02:43:27;25.30;53.60
59977;DHT22;45837;51.076;3.578;2022-08-02T02:45:54;25.30;53.60
59977;DHT22;45837;51.076;3.578;2022-08-02T02:48:21;25.30;53.60
59977;DHT22;45837;51.076;3.578;2022-08-02T02:50:47;25.40;53.60
59977;DHT22;45837;51.076;3.578;2022-08-02T02:53:17;25.30;53.50
59977;DHT22;45837;51.076;3.578;2022-08-02T02:55:44;25.30;53.50
59977;DHT22;45837;51.076;3.578;2022-08-02T02:58:11;25.30;53.50
59977;DHT22;45837;51.076;3.578;2022-08-02T03:00:37;25.30;53.50
59977;DHT22;45837;51.076;3.578;2022-08-02T03:03:23;25.30;53.50
59977;DHT22;45837;51.076;3.578;2022-08-02T03:05:49;25.30;53.50
59977;DHT22;45837;51.076;3.578;2022-08-02T03:08:15;25.30;53.60
59977;DHT22;45837;51.076;3.578;2022-08-02T03:10:45;25.30;53.60
59977;DHT22;45837;51.076;3.578;2022-08-02T03:13:11;25.30;53.50
59977;DHT22;45837;51.076;3.578;2022-08-02T03:15:39;25.30;53.50
59977;DHT22;45837;51.076;3.578;2022-08-02T03:18:05;25.30;53.50
59977;DHT22;45837;51.076;3.578;2022-08-02T03:20:33;25.30;53.50
59977;DHT22;45837;51.076;3.578;2022-08-02T03:22:59;25.30;53.50
59977;DHT22;45837;51.076;3.578;2022-08-02T03:25:24;25.30;53.50
59977;DHT22;45837;51.076;3.578;2022-08-02T03:27:50;25.20;53.50
59977;DHT22;45837;51.076;3.578;2022-08-02T03:30:16;25.30;53.60
59977;DHT22;45837;51.076;3.578;2022-08-02T03:32:44;25.20;53.50
59977;DHT22;45837;51.076;3.578;2022-08-02T03:35:14;25.20;53.60
59977;DHT22;45837;51.076;3.578;2022-08-02T03:37:41;25.30;53.70
59977;DHT22;45837;51.076;3.578;2022-08-02T03:40:08;25.20;53.70
59977;DHT22;45837;51.076;3.578;2022-08-02T03:42:35;25.20;53.60
59977;DHT22;45837;51.076;3.578;2022-08-02T03:45:03;25.20;53.70
59977;DHT22;45837;51.076;3.578;2022-08-02T03:47:30;25.20;53.70
59977;DHT22;45837;51.076;3.578;2022-08-02T03:49:57;25.20;53.70
59977;DHT22;45837;51.076;3.578;2022-08-02T03:52:24;25.20;53.70
59977;DHT22;45837;51.076;3.578;2022-08-02T03:54:51;25.20;53.70
59977;DHT22;45837;51.076;3.578;2022-08-02T03:57:16;25.20;53.70
59977;DHT22;45837;51.076;3.578;2022-08-02T03:59:44;25.20;53.70
59977;DHT22;45837;51.076;3.578;2022-08-02T04:02:10;25.20;53.70
59977;DHT22;45837;51.076;3.578;2022-08-02T04:04:36;25.20;53.70
59977;DHT22;45837;51.076;3.578;2022-08-02T04:07:02;25.10;53.70
59977;DHT22;45837;51.076;3.578;2022-08-02T04:09:28;25.10;53.80
59977;DHT22;45837;51.076;3.578;2022-08-02T04:11:54;25.20;53.90
59977;DHT22;45837;51.076;3.578;2022-08-02T04:14:20;25.10;53.90
59977;DHT22;45837;51.076;3.578;2022-08-02T04:17:12;25.10;54.10
59977;DHT22;45837;51.076;3.578;2022-08-02T04:19:42;25.10;54.10
59977;DHT22;45837;51.076;3.578;2022-08-02T04:22:15;25.10;54.20
59977;DHT22;45837;51.076;3.578;2022-08-02T04:24:46;25.10;54.20
59977;DHT22;45837;51.076;3.578;2022-08-02T04:27:14;25.10;54.20
59977;DHT22;45837;51.076;3.578;2022-08-02T04:29:41;25.10;54.70
59977;DHT22;45837;51.076;3.578;2022-08-02T04:32:07;25.10;54.10
59977;DHT22;45837;51.076;3.578;2022-08-02T04:34:34;25.10;54.20
59977;DHT22;45837;51.076;3.578;2022-08-02T04:37:00;25.10;54.20
59977;DHT22;45837;51.076;3.578;2022-08-02T04:39:26;25.00;54.10
59977;DHT22;45837;51.076;3.578;2022-08-02T04:41:52;24.90;54.40
59977;DHT22;45837;51.076;3.578;2022-08-02T04:44:18;24.70;54.80
59977;DHT22;45837;51.076;3.578;2022-08-02T04:46:44;24.50;55.20
59977;DHT22;45837;51.076;3.578;2022-08-02T04:49:10;24.40;55.50
59977;DHT22;45837;51.076;3.578;2022-08-02T04:51:37;24.40;55.80
59977;DHT22;45837;51.076;3.578;2022-08-02T04:54:04;24.20;56.10
59977;DHT22;45837;51.076;3.578;2022-08-02T04:56:30;24.20;56.40
59977;DHT22;45837;51.076;3.578;2022-08-02T04:58:55;24.10;56.50
59977;DHT22;45837;51.076;3.578;2022-08-02T05:01:21;24.10;56.70
59977;DHT22;45837;51.076;3.578;2022-08-02T05:03:47;24.00;56.90
59977;DHT22;45837;51.076;3.578;2022-08-02T05:06:13;24.00;57.00
59977;DHT22;45837;51.076;3.578;2022-08-02T05:08:38;24.00;57.10
59977;DHT22;45837;51.076;3.578;2022-08-02T05:11:04;24.00;57.10
59977;DHT22;45837;51.076;3.578;2022-08-02T05:13:30;24.10;57.10
59977;DHT22;45837;51.076;3.578;2022-08-02T05:15:56;24.10;57.30
59977;DHT22;45837;51.076;3.578;2022-08-02T05:18:23;24.10;57.50
59977;DHT22;45837;51.076;3.578;2022-08-02T05:20:49;24.00;57.50
59977;DHT22;45837;51.076;3.578;2022-08-02T05:23:15;24.10;57.50
59977;DHT22;45837;51.076;3.578;2022-08-02T05:25:40;24.10;57.50
59977;DHT22;45837;51.076;3.578;2022-08-02T05:28:06;24.20;57.20
59977;DHT22;45837;51.076;3.578;2022-08-02T05:30:32;24.30;57.10
59977;DHT22;45837;51.076;3.578;2022-08-02T05:32:58;24.30;57.00
59977;DHT22;45837;51.076;3.578;2022-08-02T05:35:23;24.30;56.80
59977;DHT22;45837;51.076;3.578;2022-08-02T05:37:50;24.40;56.60
59977;DHT22;45837;51.076;3.578;2022-08-02T05:40:17;24.50;56.40
59977;DHT22;45837;51.076;3.578;2022-08-02T05:42:43;24.50;56.30
59977;DHT22;45837;51.076;3.578;2022-08-02T05:45:09;24.60;56.20
59977;DHT22;45837;51.076;3.578;2022-08-02T05:47:35;24.60;56.10
59977;DHT22;45837;51.076;3.578;2022-08-02T05:50:02;24.70;56.00
59977;DHT22;45837;51.076;3.578;2022-08-02T05:52:43;24.70;55.80
59977;DHT22;45837;51.076;3.578;2022-08-02T05:55:25;24.70;55.80
59977;DHT22;45837;51.076;3.578;2022-08-02T05:57:57;24.80;55.80
59977;DHT22;45837;51.076;3.578;2022-08-02T06:00:30;24.80;55.80
59977;DHT22;45837;51.076;3.578;2022-08-02T06:03:23;24.80;55.60
59977;DHT22;45837;51.076;3.578;2022-08-02T06:05:58;24.90;55.50
59977;DHT22;45837;51.076;3.578;2022-08-02T06:08:31;24.90;55.40
59977;DHT22;45837;51.076;3.578;2022-08-02T06:11:00;24.90;55.40
59977;DHT22;45837;51.076;3.578;2022-08-02T06:13:27;24.90;55.50
59977;DHT22;45837;51.076;3.578;2022-08-02T06:15:54;24.90;55.40
59977;DHT22;45837;51.076;3.578;2022-08-02T06:18:26;24.90;55.40
59977;DHT22;45837;51.076;3.578;2022-08-02T06:20:57;25.00;55.40
59977;DHT22;45837;51.076;3.578;2022-08-02T06:23:25;25.00;55.40
59977;DHT22;45837;51.076;3.578;2022-08-02T06:25:52;25.00;55.30
59977;DHT22;45837;51.076;3.578;2022-08-02T06:28:19;25.00;55.30
59977;DHT22;45837;51.076;3.578;2022-08-02T06:30:45;25.00;55.30
59977;DHT22;45837;51.076;3.578;2022-08-02T06:33:11;25.00;55.30
59977;DHT22;45837;51.076;3.578;2022-08-02T06:38:24;25.10;55.00
59977;DHT22;45837;51.076;3.578;2022-08-02T06:40:55;25.10;55.00
59977;DHT22;45837;51.076;3.578;2022-08-02T06:46:06;25.10;55.00
59977;DHT22;45837;51.076;3.578;2022-08-02T06:48:33;25.10;55.00
59977;DHT22;45837;51.076;3.578;2022-08-02T06:51:02;25.20;55.20
59977;DHT22;45837;51.076;3.578;2022-08-02T06:53:28;25.10;54.90
59977;DHT22;45837;51.076;3.578;2022-08-02T06:55:55;25.10;55.10
59977;DHT22;45837;51.076;3.578;2022-08-02T06:58:21;25.20;55.20
59977;DHT22;45837;51.076;3.578;2022-08-02T07:00:46;25.10;55.00
59977;DHT22;45837;51.076;3.578;2022-08-02T07:03:12;25.20;55.20
59977;DHT22;45837;51.076;3.578;2022-08-02T07:05:40;25.20;55.30
59977;DHT22;45837;51.076;3.578;2022-08-02T07:08:06;25.10;55.20
59977;DHT22;45837;51.076;3.578;2022-08-02T07:10:32;25.10;55.30
59977;DHT22;45837;51.076;3.578;2022-08-02T07:12:58;25.10;55.20
59977;DHT22;45837;51.076;3.578;2022-08-02T07:15:24;25.10;55.20
59977;DHT22;45837;51.076;3.578;2022-08-02T07:17:49;25.10;55.40
59977;DHT22;45837;51.076;3.578;2022-08-02T07:20:15;25.10;55.40
59977;DHT22;45837;51.076;3.578;2022-08-02T07:22:41;25.10;55.40
59977;DHT22;45837;51.076;3.578;2022-08-02T07:25:07;25.10;55.40
59977;DHT22;45837;51.076;3.578;2022-08-02T07:27:33;25.10;55.40
59977;DHT22;45837;51.076;3.578;2022-08-02T07:30:00;25.10;55.40
59977;DHT22;45837;51.076;3.578;2022-08-02T07:32:29;25.10;55.20
59977;DHT22;45837;51.076;3.578;2022-08-02T07:34:56;25.20;55.20
59977;DHT22;45837;51.076;3.578;2022-08-02T07:37:24;25.10;55.10
59977;DHT22;45837;51.076;3.578;2022-08-02T07:39:50;25.20;55.10
59977;DHT22;45837;51.076;3.578;2022-08-02T07:42:16;25.10;55.00
59977;DHT22;45837;51.076;3.578;2022-08-02T07:44:42;25.20;55.00
59977;DHT22;45837;51.076;3.578;2022-08-02T07:47:08;25.20;55.00
59977;DHT22;45837;51.076;3.578;2022-08-02T07:49:33;25.20;55.00
59977;DHT22;45837;51.076;3.578;2022-08-02T07:51:59;25.20;55.50
59977;DHT22;45837;51.076;3.578;2022-08-02T07:54:25;25.20;54.90
59977;DHT22;45837;51.076;3.578;2022-08-02T07:56:50;25.10;54.80
59977;DHT22;45837;51.076;3.578;2022-08-02T07:59:18;25.20;54.80
59977;DHT22;45837;51.076;3.578;2022-08-02T08:01:45;25.20;54.90
59977;DHT22;45837;51.076;3.578;2022-08-02T08:04:10;25.20;54.90
59977;DHT22;45837;51.076;3.578;2022-08-02T08:06:36;25.20;54.70
59977;DHT22;45837;51.076;3.578;2022-08-02T08:09:02;25.20;54.80
59977;DHT22;45837;51.076;3.578;2022-08-02T08:11:28;25.20;54.80
59977;DHT22;45837;51.076;3.578;2022-08-02T08:13:54;25.20;54.70
59977;DHT22;45837;51.076;3.578;2022-08-02T08:16:19;25.20;54.80
59977;DHT22;45837;51.076;3.578;2022-08-02T08:18:46;25.20;54.50
59977;DHT22;45837;51.076;3.578;2022-08-02T08:21:11;25.20;54.50
59977;DHT22;45837;51.076;3.578;2022-08-02T08:23:37;25.20;54.40
59977;DHT22;45837;51.076;3.578;2022-08-02T08:26:03;25.20;54.50
59977;DHT22;45837;51.076;3.578;2022-08-02T08:28:29;25.20;54.50
59977;DHT22;45837;51.076;3.578;2022-08-02T08:30:55;25.20;54.50
59977;DHT22;45837;51.076;3.578;2022-08-02T08:33:20;25.20;54.60
59977;DHT22;45837;51.076;3.578;2022-08-02T08:35:46;25.20;54.40
59977;DHT22;45837;51.076;3.578;2022-08-02T08:38:12;25.20;54.40
59977;DHT22;45837;51.076;3.578;2022-08-02T08:40:38;25.20;54.40
59977;DHT22;45837;51.076;3.578;2022-08-02T08:43:06;25.20;54.30
59977;DHT22;45837;51.076;3.578;2022-08-02T08:45:32;25.20;54.10
59977;DHT22;45837;51.076;3.578;2022-08-02T08:48:09;25.20;54.00
59977;DHT22;45837;51.076;3.578;2022-08-02T08:50:40;25.20;53.70
59977;DHT22;45837;51.076;3.578;2022-08-02T08:53:10;25.20;53.70
59977;DHT22;45837;51.076;3.578;2022-08-02T08:55:38;25.20;53.70
59977;DHT22;45837;51.076;3.578;2022-08-02T08:58:04;25.20;53.80
59977;DHT22;45837;51.076;3.578;2022-08-02T09:00:32;25.30;53.80
59977;DHT22;45837;51.076;3.578;2022-08-02T09:03:02;25.30;53.80
59977;DHT22;45837;51.076;3.578;2022-08-02T09:05:28;25.30;53.70
59977;DHT22;45837;51.076;3.578;2022-08-02T09:07:53;25.20;53.70
59977;DHT22;45837;51.076;3.578;2022-08-02T09:10:38;25.40;53.60
59977;DHT22;45837;51.076;3.578;2022-08-02T09:13:10;25.30;53.60
59977;DHT22;45837;51.076;3.578;2022-08-02T09:15:37;25.30;53.50
59977;DHT22;45837;51.076;3.578;2022-08-02T09:18:04;25.30;53.60
59977;DHT22;45837;51.076;3.578;2022-08-02T09:20:35;25.30;53.50
59977;DHT22;45837;51.076;3.578;2022-08-02T09:23:15;25.30;53.50
59977;DHT22;45837;51.076;3.578;2022-08-02T09:25:40;25.30;53.60
59977;DHT22;45837;51.076;3.578;2022-08-02T09:28:06;25.30;53.60
59977;DHT22;45837;51.076;3.578;2022-08-02T09:30:41;25.30;53.50
59977;DHT22;45837;51.076;3.578;2022-08-02T09:33:08;25.30;53.60
59977;DHT22;45837;51.076;3.578;2022-08-02T09:35:36;25.30;53.60
59977;DHT22;45837;51.076;3.578;2022-08-02T09:38:11;25.30;53.60
59977;DHT22;45837;51.076;3.578;2022-08-02T09:40:39;25.30;53.90
59977;DHT22;45837;51.076;3.578;2022-08-02T09:43:05;25.30;53.90
59977;DHT22;45837;51.076;3.578;2022-08-02T09:45:32;25.20;54.10
59977;DHT22;45837;51.076;3.578;2022-08-02T09:48:01;25.00;54.10
59977;DHT22;45837;51.076;3.578;2022-08-02T09:50:27;25.30;54.10
59977;DHT22;45837;51.076;3.578;2022-08-02T09:52:56;25.30;54.10
59977;DHT22;45837;51.076;3.578;2022-08-02T09:55:23;25.30;54.10
59977;DHT22;45837;51.076;3.578;2022-08-02T09:57:49;25.30;54.10
59977;DHT22;45837;51.076;3.578;2022-08-02T10:00:15;25.40;54.20
59977;DHT22;45837;51.076;3.578;2022-08-02T10:03:04;25.30;54.40
59977;DHT22;45837;51.076;3.578;2022-08-02T10:05:29;25.30;54.20
59977;DHT22;45837;51.076;3.578;2022-08-02T10:07:56;25.40;54.30
59977;DHT22;45837;51.076;3.578;2022-08-02T10:10:22;25.40;54.30
59977;DHT22;45837;51.076;3.578;2022-08-02T10:12:48;25.40;54.20
59977;DHT22;45837;51.076;3.578;2022-08-02T10:15:15;25.40;54.20
59977;DHT22;45837;51.076;3.578;2022-08-02T10:17:42;25.40;54.30
59977;DHT22;45837;51.076;3.578;2022-08-02T10:20:09;25.40;54.40
59977;DHT22;45837;51.076;3.578;2022-08-02T10:22:35;25.40;54.30
59977;DHT22;45837;51.076;3.578;2022-08-02T10:25:03;25.40;54.90
59977;DHT22;45837;51.076;3.578;2022-08-02T10:27:30;25.40;54.40
59977;DHT22;45837;51.076;3.578;2022-08-02T10:29:58;25.40;54.30
59977;DHT22;45837;51.076;3.578;2022-08-02T10:32:31;25.40;54.30
59977;DHT22;45837;51.076;3.578;2022-08-02T10:35:03;25.40;54.30
59977;DHT22;45837;51.076;3.578;2022-08-02T10:37:32;25.40;54.30
59977;DHT22;45837;51.076;3.578;2022-08-02T10:40:00;25.40;54.40
59977;DHT22;45837;51.076;3.578;2022-08-02T10:42:56;25.50;54.40
59977;DHT22;45837;51.076;3.578;2022-08-02T10:45:25;25.40;54.20
59977;DHT22;45837;51.076;3.578;2022-08-02T10:48:08;25.40;54.40
59977;DHT22;45837;51.076;3.578;2022-08-02T10:53:29;25.50;54.60
59977;DHT22;45837;51.076;3.578;2022-08-02T10:55:58;25.50;54.60
59977;DHT22;45837;51.076;3.578;2022-08-02T10:58:26;25.40;54.40
59977;DHT22;45837;51.076;3.578;2022-08-02T11:00:53;25.50;54.50
59977;DHT22;45837;51.076;3.578;2022-08-02T11:06:02;25.50;55.20
59977;DHT22;45837;51.076;3.578;2022-08-02T11:08:28;25.50;55.00
59977;DHT22;45837;51.076;3.578;2022-08-02T11:11:02;25.50;55.00
59977;DHT22;45837;51.076;3.578;2022-08-02T11:17:03;25.50;55.00
59977;DHT22;45837;51.076;3.578;2022-08-02T11:19:31;25.60;54.90
59977;DHT22;45837;51.076;3.578;2022-08-02T11:22:10;25.50;54.80
59977;DHT22;45837;51.076;3.578;2022-08-02T11:24:40;25.60;54.80
59977;DHT22;45837;51.076;3.578;2022-08-02T11:27:08;25.60;55.00
59977;DHT22;45837;51.076;3.578;2022-08-02T11:29:38;25.30;55.00
59977;DHT22;45837;51.076;3.578;2022-08-02T11:32:06;25.60;55.30
59977;DHT22;45837;51.076;3.578;2022-08-02T11:34:32;25.60;55.30
59977;DHT22;45837;51.076;3.578;2022-08-02T11:36:59;25.60;55.30
59977;DHT22;45837;51.076;3.578;2022-08-02T11:39:25;25.70;55.30
59977;DHT22;45837;51.076;3.578;2022-08-02T11:41:52;25.60;55.30
59977;DHT22;45837;51.076;3.578;2022-08-02T11:44:19;25.70;55.10
59977;DHT22;45837;51.076;3.578;2022-08-02T11:46:56;25.70;55.30
59977;DHT22;45837;51.076;3.578;2022-08-02T11:49:23;25.70;55.20
59977;DHT22;45837;51.076;3.578;2022-08-02T11:52:00;25.80;55.60
59977;DHT22;45837;51.076;3.578;2022-08-02T11:54:40;25.80;55.60
59977;DHT22;45837;51.076;3.578;2022-08-02T11:57:17;25.80;55.50
59977;DHT22;45837;51.076;3.578;2022-08-02T11:59:45;25.80;55.50
59977;DHT22;45837;51.076;3.578;2022-08-02T12:02:12;25.80;55.70
59977;DHT22;45837;51.076;3.578;2022-08-02T12:04:39;25.80;55.60
59977;DHT22;45837;51.076;3.578;2022-08-02T12:07:05;25.90;55.40
59977;DHT22;45837;51.076;3.578;2022-08-02T12:09:34;25.90;55.50
59977;DHT22;45837;51.076;3.578;2022-08-02T12:12:00;25.90;55.40
59977;DHT22;45837;51.076;3.578;2022-08-02T12:14:29;25.90;55.50
59977;DHT22;45837;51.076;3.578;2022-08-02T12:16:56;25.90;55.20
59977;DHT22;45837;51.076;3.578;2022-08-02T12:19:41;26.00;55.30
59977;DHT22;45837;51.076;3.578;2022-08-02T12:24:39;25.90;55.40
59977;DHT22;45837;51.076;3.578;2022-08-02T12:27:06;25.90;55.40
59977;DHT22;45837;51.076;3.578;2022-08-02T12:29:38;25.90;55.30
59977;DHT22;45837;51.076;3.578;2022-08-02T12:32:05;25.90;55.50
59977;DHT22;45837;51.076;3.578;2022-08-02T12:34:33;25.90;55.60
59977;DHT22;45837;51.076;3.578;2022-08-02T12:37:08;25.90;55.60
59977;DHT22;45837;51.076;3.578;2022-08-02T12:42:00;26.00;55.30
59977;DHT22;45837;51.076;3.578;2022-08-02T12:44:26;26.00;55.40
59977;DHT22;45837;51.076;3.578;2022-08-02T12:47:03;26.00;55.40
59977;DHT22;45837;51.076;3.578;2022-08-02T12:49:29;26.00;55.20
59977;DHT22;45837;51.076;3.578;2022-08-02T12:51:55;25.90;55.30
59977;DHT22;45837;51.076;3.578;2022-08-02T12:54:24;26.00;55.50
59977;DHT22;45837;51.076;3.578;2022-08-02T12:56:51;26.00;55.30
59977;DHT22;45837;51.076;3.578;2022-08-02T12:59:35;26.00;55.30
59977;DHT22;45837;51.076;3.578;2022-08-02T13:02:03;26.00;55.30
59977;DHT22;45837;51.076;3.578;2022-08-02T13:04:29;26.00;55.40
59977;DHT22;45837;51.076;3.578;2022-08-02T13:06:55;26.00;55.30
59977;DHT22;45837;51.076;3.578;2022-08-02T13:09:21;26.00;55.20
59977;DHT22;45837;51.076;3.578;2022-08-02T13:11:47;26.00;55.70
59977;DHT22;45837;51.076;3.578;2022-08-02T13:14:13;26.10;55.20
59977;DHT22;45837;51.076;3.578;2022-08-02T13:16:41;26.20;55.10
59977;DHT22;45837;51.076;3.578;2022-08-02T13:19:07;26.20;55.00
59977;DHT22;45837;51.076;3.578;2022-08-02T13:21:33;26.20;54.90
59977;DHT22;45837;51.076;3.578;2022-08-02T13:23:59;26.20;55.00
59977;DHT22;45837;51.076;3.578;2022-08-02T13:26:24;26.10;55.00
59977;DHT22;45837;51.076;3.578;2022-08-02T13:28:51;26.10;55.40
59977;DHT22;45837;51.076;3.578;2022-08-02T13:31:17;26.10;55.30
59977;DHT22;45837;51.076;3.578;2022-08-02T13:33:43;25.90;55.20
59977;DHT22;45837;51.076;3.578;2022-08-02T13:36:09;26.20;55.50
59977;DHT22;45837;51.076;3.578;2022-08-02T13:38:35;26.20;55.20
59977;DHT22;45837;51.076;3.578;2022-08-02T13:41:01;26.10;55.30
59977;DHT22;45837;51.076;3.578;2022-08-02T13:43:37;26.10;55.10
59977;DHT22;45837;51.076;3.578;2022-08-02T13:46:04;26.10;55.10
59977;DHT22;45837;51.076;3.578;2022-08-02T13:48:30;26.10;55.00
59977;DHT22;45837;51.076;3.578;2022-08-02T13:50:56;26.10;55.10
59977;DHT22;45837;51.076;3.578;2022-08-02T13:53:22;26.10;55.20
59977;DHT22;45837;51.076;3.578;2022-08-02T13:55:48;26.10;56.00
59977;DHT22;45837;51.076;3.578;2022-08-02T13:58:14;26.10;55.40
59977;DHT22;45837;51.076;3.578;2022-08-02T14:00:40;26.10;55.30
59977;DHT22;45837;51.076;3.578;2022-08-02T14:03:07;26.10;55.50
59977;DHT22;45837;51.076;3.578;2022-08-02T14:05:37;26.00;55.30
59977;DHT22;45837;51.076;3.578;2022-08-02T14:08:03;26.10;55.40
59977;DHT22;45837;51.076;3.578;2022-08-02T14:10:29;26.10;55.40
59977;DHT22;45837;51.076;3.578;2022-08-02T14:12:55;26.10;55.20
59977;DHT22;45837;51.076;3.578;2022-08-02T14:15:21;26.10;55.40
59977;DHT22;45837;51.076;3.578;2022-08-02T14:17:47;26.20;55.60
59977;DHT22;45837;51.076;3.578;2022-08-02T14:20:14;26.10;55.50
59977;DHT22;45837;51.076;3.578;2022-08-02T14:22:40;26.10;55.50
59977;DHT22;45837;51.076;3.578;2022-08-02T14:25:06;26.20;55.60
59977;DHT22;45837;51.076;3.578;2022-08-02T14:27:32;26.20;55.60
59977;DHT22;45837;51.076;3.578;2022-08-02T14:29:58;26.20;55.80
59977;DHT22;45837;51.076;3.578;2022-08-02T14:32:24;26.20;55.80
59977;DHT22;45837;51.076;3.578;2022-08-02T14:34:51;26.10;55.60
59977;DHT22;45837;51.076;3.578;2022-08-02T14:37:18;26.10;55.60
59977;DHT22;45837;51.076;3.578;2022-08-02T14:39:44;26.10;55.70
59977;DHT22;45837;51.076;3.578;2022-08-02T14:42:10;26.20;56.30
59977;DHT22;45837;51.076;3.578;2022-08-02T14:44:36;26.20;55.60
59977;DHT22;45837;51.076;3.578;2022-08-02T14:47:03;26.20;55.60
59977;DHT22;45837;51.076;3.578;2022-08-02T14:49:30;26.20;55.60
59977;DHT22;45837;51.076;3.578;2022-08-02T14:51:57;26.20;55.70
59977;DHT22;45837;51.076;3.578;2022-08-02T14:54:24;26.20;55.50
59977;DHT22;45837;51.076;3.578;2022-08-02T14:56:53;26.20;55.30
59977;DHT22;45837;51.076;3.578;2022-08-02T14:59:19;26.20;56.00
59977;DHT22;45837;51.076;3.578;2022-08-02T15:01:45;26.20;56.20
59977;DHT22;45837;51.076;3.578;2022-08-02T15:04:11;26.20;56.30
59977;DHT22;45837;51.076;3.578;2022-08-02T15:06:38;26.20;56.90
59977;DHT22;45837;51.076;3.578;2022-08-02T15:09:04;26.20;57.30
59977;DHT22;45837;51.076;3.578;2022-08-02T15:11:30;26.30;57.20
59977;DHT22;45837;51.076;3.578;2022-08-02T15:13:56;26.30;57.40
59977;DHT22;45837;51.076;3.578;2022-08-02T15:16:24;26.30;57.40
59977;DHT22;45837;51.076;3.578;2022-08-02T15:18:49;26.40;57.40
59977;DHT22;45837;51.076;3.578;2022-08-02T15:21:15;26.30;58.00
59977;DHT22;45837;51.076;3.578;2022-08-02T15:23:41;26.40;58.70
59977;DHT22;45837;51.076;3.578;2022-08-02T15:26:07;26.40;58.30
59977;DHT22;45837;51.076;3.578;2022-08-02T15:28:33;26.40;58.20
59977;DHT22;45837;51.076;3.578;2022-08-02T15:30:59;26.40;58.70
59977;DHT22;45837;51.076;3.578;2022-08-02T15:33:25;26.40;58.40
59977;DHT22;45837;51.076;3.578;2022-08-02T15:35:51;26.40;58.70
59977;DHT22;45837;51.076;3.578;2022-08-02T15:38:17;26.50;59.50
59977;DHT22;45837;51.076;3.578;2022-08-02T15:40:43;26.50;59.30
59977;DHT22;45837;51.076;3.578;2022-08-02T15:43:10;26.50;59.10
59977;DHT22;45837;51.076;3.578;2022-08-02T15:45:36;26.50;58.80
59977;DHT22;45837;51.076;3.578;2022-08-02T15:48:03;26.50;58.90
59977;DHT22;45837;51.076;3.578;2022-08-02T15:50:29;26.50;58.90
59977;DHT22;45837;51.076;3.578;2022-08-02T15:52:55;26.50;58.90
59977;DHT22;45837;51.076;3.578;2022-08-02T15:55:21;26.50;59.00
59977;DHT22;45837;51.076;3.578;2022-08-02T15:57:46;26.50;58.70
59977;DHT22;45837;51.076;3.578;2022-08-02T16:00:13;26.50;58.80
59977;DHT22;45837;51.076;3.578;2022-08-02T16:02:39;26.50;58.40
59977;DHT22;45837;51.076;3.578;2022-08-02T16:05:05;26.60;58.60